Time;durP1;ratioP1;P1;durP2;ratioP2;P2;SDS_P1;SDS_P2;PMS_P1;PMS_P2;Temp;Humidity;BMP_temperature;BMP_pressure;BME280_temperature;BME280_humidity;BME280_pressure;Samples;Min_cycle;Max_cycle;Signal;HPM_P1;HPM_P2
2022/11/17 00:01:55;;;;;;;21.70;20.50;;;;;;;13.10;62.20;98565.22;5035331;28;20067;-73
2022/11/17 00:04:20;;;;;;;24.85;23.38;;;;;;;13.09;62.34;98544.66;5035607;28;20037;-73
2022/11/17 00:06:45;;;;;;;21.40;20.17;;;;;;;13.09;62.37;98577.97;5047573;28;20082;-73
2022/11/17 00:09:16;;;;;;;25.27;23.88;;;;;;;13.09;62.03;98577.19;5040218;28;20079;-73
2022/11/17 00:14:31;;;;;;;22.50;21.30;;;;;;;13.09;62.16;98550.09;5039369;28;20036;-73
2022/11/17 00:16:58;;;;;;;22.60;21.25;;;;;;;13.09;62.30;98531.13;5047898;28;20164;-73
2022/11/17 00:22:07;;;;;;;22.35;21.00;;;;;;;13.08;62.34;98496.97;5044161;28;20064;-76
2022/11/17 00:24:33;;;;;;;23.40;22.00;;;;;;;13.08;62.42;98519.47;5043030;28;20029;-73
2022/11/17 00:27:01;;;;;;;23.02;21.83;;;;;;;13.09;62.31;98536.53;5048596;28;20366;-72
2022/11/17 00:29:30;;;;;;;21.83;20.63;;;;;;;13.10;62.24;98535.41;5037031;28;20360;-72
2022/11/17 00:34:39;;;;;;;23.40;22.05;;;;;;;13.10;62.24;98497.47;5041475;28;20060;-72
2022/11/17 00:37:05;;;;;;;22.67;21.48;;;;;;;13.10;62.40;98486.63;5034141;28;20037;-72
2022/11/17 00:39:31;;;;;;;22.20;21.10;;;;;;;13.10;62.56;98495.59;5041503;28;20033;-72
2022/11/17 00:41:57;;;;;;;22.13;20.92;;;;;;;13.10;62.24;98506.41;5034806;28;20072;-72
2022/11/17 00:44:23;;;;;;;23.20;21.90;;;;;;;13.11;62.25;98515.34;5048527;28;20137;-72
2022/11/17 00:46:49;;;;;;;22.80;21.48;;;;;;;13.12;62.22;98508.81;5053665;28;20098;-72
2022/11/17 00:49:14;;;;;;;24.50;23.13;;;;;;;13.12;62.14;98476.28;5048551;28;20037;-72
2022/11/17 00:51:40;;;;;;;22.05;20.75;;;;;;;13.12;62.38;98497.97;5033473;28;20389;-72
2022/11/17 00:54:09;;;;;;;24.00;22.65;;;;;;;13.11;62.22;98485.53;5046667;28;20037;-72
2022/11/17 00:56:34;;;;;;;20.63;19.45;;;;;;;13.12;62.38;98484.41;5036743;28;20112;-72
2022/11/17 00:59:00;;;;;;;21.83;20.63;;;;;;;13.12;62.30;98463.50;5034543;28;20079;-71
2022/11/17 01:01:26;;;;;;;23.88;22.48;;;;;;;13.12;62.46;98463.50;5033973;28;20390;-71
2022/11/17 01:04:01;;;;;;;23.05;21.75;;;;;;;13.12;62.40;98462.72;5036599;28;20104;-72
2022/11/17 01:06:29;;;;;;;23.23;21.92;;;;;;;13.11;62.42;98461.94;5042330;28;20044;-72
2022/11/17 01:08:54;;;;;;;21.23;19.83;;;;;;;13.11;62.28;98448.38;5034182;28;20110;-71
2022/11/17 01:11:20;;;;;;;22.90;21.60;;;;;;;13.11;62.42;98451.09;5032635;28;20030;-71
2022/11/17 01:13:46;;;;;;;21.80;20.70;;;;;;;13.12;62.38;98447.25;5034361;28;20032;-72
2022/11/17 01:16:15;;;;;;;23.00;21.75;;;;;;;13.12;62.38;98432.91;5043733;28;20037;-72
2022/11/17 01:18:42;;;;;;;21.90;20.73;;;;;;;13.11;62.59;98431.31;5034101;28;20025;-72
2022/11/17 01:21:16;;;;;;;22.90;21.60;;;;;;;13.12;62.47;98439.13;5034242;28;20047;-72
2022/11/17 01:23:43;;;;;;;23.75;22.45;;;;;;;13.13;62.38;98448.06;5033911;28;20029;-72
2022/11/17 01:26:11;;;;;;;22.58;21.30;;;;;;;13.13;62.43;98443.44;5048262;28;20033;-71
2022/11/17 01:28:38;;;;;;;21.67;20.58;;;;;;;13.14;62.29;98439.59;5040101;28;20038;-72
2022/11/17 01:31:07;;;;;;;22.77;21.33;;;;;;;13.13;62.42;98431.81;5034007;28;20029;-72
2022/11/17 01:33:33;;;;;;;22.80;21.60;;;;;;;13.13;62.41;98427.19;5033156;28;20133;-72
2022/11/17 01:36:03;;;;;;;22.15;20.95;;;;;;;13.13;62.36;98435.31;5044007;28;20346;-72
2022/11/17 01:38:29;;;;;;;22.52;21.20;;;;;;;13.14;62.37;98436.91;5038815;28;20033;-71
2022/11/17 01:41:03;;;;;;;23.20;21.80;;;;;;;13.14;62.37;98436.91;5033447;28;20531;-72
2022/11/17 01:43:44;;;;;;;22.30;21.10;;;;;;;13.14;62.36;98438.81;5033174;28;20380;-71
2022/11/17 01:46:31;;;;;;;22.92;21.73;;;;;;;13.13;62.68;98427.19;5042725;28;20039;-72
2022/11/17 01:49:01;;;;;;;22.80;21.60;;;;;;;13.13;62.46;98429.91;5050208;28;20481;-72
2022/11/17 01:51:30;;;;;;;22.63;21.40;;;;;;;13.14;62.35;98419.84;5033696;28;20068;-72
2022/11/17 01:53:57;;;;;;;21.10;20.00;;;;;;;13.14;62.18;98417.91;5033539;28;20025;-72
2022/11/17 01:56:28;;;;;;;23.58;21.88;;;;;;;13.15;62.44;98411.41;5039867;28;20115;-72
2022/11/17 01:59:01;;;;;;;23.00;21.80;;;;;;;13.14;62.60;98415.22;5048023;28;20208;-71
2022/11/17 02:01:26;;;;;;;23.40;22.13;;;;;;;13.14;62.27;98403.56;5035325;28;20033;-72
2022/11/17 02:03:52;;;;;;;21.42;20.33;;;;;;;13.15;62.39;98397.84;5033354;28;20039;-72
2022/11/17 02:06:27;;;;;;;21.23;20.13;;;;;;;13.15;62.42;98388.91;5036193;28;20060;-72
2022/11/17 02:08:53;;;;;;;22.75;21.45;;;;;;;13.15;62.35;98383.47;5051516;28;20476;-71
2022/11/17 02:11:20;;;;;;;22.70;21.40;;;;;;;13.16;62.50;98393.22;5052435;28;20044;-72
2022/11/17 02:13:46;;;;;;;21.00;19.90;;;;;;;13.15;62.37;98380.78;5042099;28;20029;-72
2022/11/17 02:16:13;;;;;;;21.98;20.85;;;;;;;13.16;62.56;98374.25;5039831;28;20029;-72
2022/11/17 02:18:42;;;;;;;22.42;21.23;;;;;;;13.15;62.62;98368.03;5043434;28;20055;-72
2022/11/17 02:21:45;;;;;;;21.67;20.55;;;;;;;13.16;62.39;98361.50;5034124;28;20420;-72
2022/11/17 02:24:51;;;;;;;21.63;20.33;;;;;;;13.16;62.79;98366.13;5038310;28;20485;-72
2022/11/17 02:27:32;;;;;;;21.58;20.48;;;;;;;13.14;62.42;98366.41;5052278;28;20457;-71
2022/11/17 02:30:06;;;;;;;21.42;20.02;;;;;;;13.14;62.65;98362.91;5038223;28;20038;-71
2022/11/17 02:32:59;;;;;;;22.88;21.65;;;;;;;13.15;62.63;98353.66;5032001;28;20084;-71
2022/11/17 02:35:57;;;;;;;22.23;21.13;;;;;;;13.15;62.42;98345.53;5032985;28;20049;-75
2022/11/17 02:38:31;;;;;;;20.58;19.48;;;;;;;13.14;62.80;98342.03;5032042;28;20050;-72
2022/11/17 02:41:10;;;;;;;23.67;22.48;;;;;;;13.14;62.55;98339.31;5037875;28;20112;-72
2022/11/17 02:46:29;;;;;;;20.83;19.73;;;;;;;13.14;62.36;98339.31;5032191;28;20463;-74
2022/11/17 02:49:04;;;;;;;21.15;20.05;;;;;;;13.14;62.49;98333.09;5035190;28;20044;-72
2022/11/17 02:51:31;;;;;;;21.75;20.60;;;;;;;13.15;62.63;98326.56;5046013;28;20693;-72
2022/11/17 02:53:58;;;;;;;21.60;20.40;;;;;;;13.16;62.59;98325.47;5032496;28;20041;-72
2022/11/17 02:56:24;;;;;;;20.75;19.75;;;;;;;13.16;62.39;98323.53;5032063;28;20065;-71
2022/11/17 02:58:56;;;;;;;20.98;19.88;;;;;;;13.16;62.50;98315.41;5036111;28;20447;-72
2022/11/17 03:01:36;;;;;;;21.08;19.98;;;;;;;13.16;62.50;98317.31;5033748;28;20350;-72
2022/11/17 03:04:09;;;;;;;20.27;19.27;;;;;;;13.17;62.63;98324.31;5032395;28;20036;-72
2022/11/17 03:06:56;;;;;;;22.35;21.05;;;;;;;13.17;62.68;98318.91;5031768;28;20076;-72
2022/11/17 03:09:47;;;;;;;21.23;20.17;;;;;;;13.16;62.42;98299.16;5046640;28;20036;-72
2022/11/17 03:12:45;;;;;;;20.80;19.77;;;;;;;13.15;62.63;98302.97;5035652;28;20037;-72
2022/11/17 03:15:26;;;;;;;21.25;20.15;;;;;;;13.16;62.69;98296.44;5031782;28;20440;-72
2022/11/17 03:18:01;;;;;;;20.73;19.73;;;;;;;13.16;62.55;98295.66;5031669;28;20029;-72
2022/11/17 03:20:38;;;;;;;21.83;20.75;;;;;;;13.16;62.67;98290.22;5037801;28;20033;-72
2022/11/17 03:23:13;;;;;;;20.88;19.77;;;;;;;13.16;62.27;98279.38;5043866;28;20040;-72
2022/11/17 03:25:43;;;;;;;21.63;20.42;;;;;;;13.17;62.57;98283.66;5031647;28;20035;-71
2022/11/17 03:28:10;;;;;;;22.30;21.20;;;;;;;13.17;62.61;98281.75;5031947;28;20029;-71
2022/11/17 03:30:41;;;;;;;22.63;21.35;;;;;;;13.17;62.46;98270.91;5037426;28;20040;-72
2022/11/17 03:33:13;;;;;;;21.38;20.27;;;;;;;13.17;62.48;98265.50;5045797;28;20029;-71
2022/11/17 03:35:41;;;;;;;22.65;21.45;;;;;;;13.18;62.67;98264.38;5031506;28;20045;-71
2022/11/17 03:38:11;;;;;;;20.67;19.57;;;;;;;13.18;62.67;98260.88;5031733;28;20041;-71
2022/11/17 03:40:39;;;;;;;22.75;21.50;;;;;;;13.18;62.67;98252.75;5040824;28;20291;-72
2022/11/17 03:43:08;;;;;;;20.35;19.35;;;;;;;13.18;62.60;98248.13;5050004;28;20036;-71
2022/11/17 03:45:39;;;;;;;21.75;20.65;;;;;;;13.18;62.54;98242.72;5037440;28;20025;-75
2022/11/17 03:48:20;;;;;;;20.75;19.75;;;;;;;13.19;62.50;98241.56;5041619;28;20461;-72
2022/11/17 03:50:54;;;;;;;23.63;22.38;;;;;;;13.19;62.61;98246.22;5045536;28;20029;-71
2022/11/17 03:53:20;;;;;;;21.40;20.35;;;;;;;13.20;62.66;98245.06;5041239;28;20025;-72
2022/11/17 03:55:54;;;;;;;23.17;21.98;;;;;;;13.19;62.61;98240.78;5031425;28;20107;-72
2022/11/17 03:58:25;;;;;;;21.77;20.67;;;;;;;13.19;62.62;98229.94;5031755;28;20033;-72
2022/11/17 04:00:52;;;;;;;22.67;21.48;;;;;;;13.20;62.55;98226.09;5034922;28;20025;-71
2022/11/17 04:03:20;;;;;;;21.75;20.65;;;;;;;13.20;62.43;98231.53;5042407;28;20037;-71
2022/11/17 04:05:46;;;;;;;21.65;20.45;;;;;;;13.20;62.68;98231.53;5035007;28;20040;-71
2022/11/17 04:08:11;;;;;;;20.77;19.67;;;;;;;13.19;62.72;98232.66;5035417;28;20034;-71
2022/11/17 04:15:55;;;;;;;22.25;21.15;;;;;;;13.19;62.69;98238.06;5035078;28;20136;-75
2022/11/17 04:16:06;;;;;;;21.63;20.52;;;;;;;13.19;62.51;98227.22;5050848;28;20044;-72
2022/11/17 04:18:31;;;;;;;21.65;20.42;;;;;;;13.19;62.70;98225.31;5036748;28;20025;-72
2022/11/17 04:20:57;;;;;;;22.20;20.90;;;;;;;13.19;62.68;98222.59;5034722;28;20462;-72
2022/11/17 04:23:23;;;;;;;22.17;21.08;;;;;;;13.19;62.59;98219.09;5051410;28;20496;-72
2022/11/17 04:28:37;;;;;;;21.52;20.50;;;;;;;13.19;62.70;98200.91;5051563;28;20068;-72
2022/11/17 04:31:05;;;;;;;22.20;21.10;;;;;;;13.19;62.69;98184.66;5034271;28;20034;-72
2022/11/17 04:33:30;;;;;;;21.92;20.83;;;;;;;13.20;62.60;98190.88;5036686;28;20061;-72
2022/11/17 04:35:56;;;;;;;22.60;21.20;;;;;;;13.19;62.55;98186.56;5034538;28;20079;-72
2022/11/17 04:38:21;;;;;;;22.15;20.95;;;;;;;13.19;62.89;98173.81;5048954;28;20462;-72
2022/11/17 04:43:31;;;;;;;21.33;20.23;;;;;;;13.19;62.51;98173.81;5041954;28;20056;-71
2022/11/17 04:46:00;;;;;;;23.08;21.73;;;;;;;13.19;62.67;98173.81;5034524;28;20029;-72
2022/11/17 04:48:25;;;;;;;;;;;;;;;13.20;62.75;98174.59;5048531;28;20035;-72
2022/11/17 04:50:55;;;;;;;22.08;20.88;;;;;;;13.18;62.71;98150.53;5034271;28;20011;-72
2022/11/17 04:53:21;;;;;;;20.75;19.75;;;;;;;13.19;62.99;98181.16;5042821;28;20075;-73
2022/11/17 04:55:47;;;;;;;21.45;20.38;;;;;;;13.19;62.62;98197.41;5038462;28;20037;-72
2022/11/17 04:58:13;;;;;;;21.95;20.80;;;;;;;13.20;62.68;98199.00;5041063;28;20049;-72
2022/11/17 05:00:38;;;;;;;20.92;19.83;;;;;;;13.20;62.53;98197.09;5034502;28;20421;-72
2022/11/17 05:03:03;;;;;;;23.60;22.40;;;;;;;13.20;62.72;98205.22;5037328;28;20037;-72
2022/11/17 05:05:29;;;;;;;22.05;20.95;;;;;;;13.20;62.82;98210.66;5044792;28;20044;-74
2022/11/17 05:07:54;;;;;;;22.70;21.17;;;;;;;13.22;62.59;98218.44;5034000;28;20038;-71
2022/11/17 05:13:20;;;;;;;21.83;20.63;;;;;;;13.21;62.56;98214.16;5045600;28;20041;-71
2022/11/17 05:13:24;;;;;;;22.92;21.67;;;;;;;13.21;62.76;98212.25;5033288;28;20053;-71
2022/11/17 05:18:42;;;;;;;22.02;20.63;;;;;;;13.20;62.61;98224.22;5035198;28;20048;-71
2022/11/17 05:21:09;;;;;;;22.00;20.90;;;;;;;13.20;62.81;98224.22;5032386;28;20204;-73
2022/11/17 05:23:53;;;;;;;21.92;20.73;;;;;;;13.20;62.58;98224.22;5034578;28;20025;-73
2022/11/17 05:26:27;;;;;;;21.50;20.38;;;;;;;13.21;62.87;98222.28;5034063;28;20033;-73
2022/11/17 05:28:54;;;;;;;22.30;21.10;;;;;;;13.22;62.79;98234.72;5033386;28;20037;-72
2022/11/17 05:31:20;;;;;;;22.60;21.40;;;;;;;13.22;62.72;98226.59;5041056;28;20038;-72
2022/11/17 05:33:46;;;;;;;21.85;20.75;;;;;;;13.22;62.58;98223.88;5033230;28;20103;-72
2022/11/17 05:36:12;;;;;;;23.63;22.42;;;;;;;13.23;62.78;98225.47;5040309;28;20068;-72
2022/11/17 05:38:38;;;;;;;23.17;21.88;;;;;;;13.24;62.93;98226.28;5033593;28;20033;-72
2022/11/17 05:41:03;;;;;;;23.20;22.00;;;;;;;13.23;62.86;98230.91;5034681;28;20067;-72
2022/11/17 05:43:28;;;;;;;23.15;21.95;;;;;;;13.24;62.74;98229.78;5033683;28;20038;-72
2022/11/17 05:45:54;;;;;;;23.40;22.17;;;;;;;13.24;62.72;98235.19;5037807;28;20144;-72
2022/11/17 05:48:19;;;;;;;22.50;21.30;;;;;;;13.24;63.00;98237.13;5032992;28;20040;-73
2022/11/17 05:50:45;;;;;;;21.17;20.08;;;;;;;13.24;62.71;98243.31;5037273;28;20108;-71
2022/11/17 05:53:10;;;;;;;21.40;19.95;;;;;;;13.25;63.19;98244.13;5045856;28;20095;-72
2022/11/17 05:55:36;;;;;;;22.40;21.20;;;;;;;13.24;62.76;98243.31;5040678;28;20040;-72
2022/11/17 05:58:08;;;;;;;23.45;22.15;;;;;;;13.24;62.66;98251.47;5058929;28;20141;-71
2022/11/17 06:00:38;;;;;;;21.95;20.65;;;;;;;13.24;62.69;98254.16;5032877;28;20036;-73
2022/11/17 06:03:13;;;;;;;23.48;22.17;;;;;;;13.25;63.07;98255.75;5043490;28;20048;-72
2022/11/17 06:05:39;;;;;;;21.98;20.88;;;;;;;13.26;62.84;98251.16;5055385;28;20033;-73
2022/11/17 06:08:05;;;;;;;23.73;22.45;;;;;;;13.26;62.76;98259.28;5041739;28;20045;-71
2022/11/17 06:10:32;;;;;;;22.23;21.10;;;;;;;13.26;62.96;98268.22;5032605;28;20469;-71
2022/11/17 06:12:57;;;;;;;23.92;22.45;;;;;;;13.26;62.69;98267.41;5037139;28;20473;-71
2022/11/17 06:15:23;;;;;;;22.73;21.17;;;;;;;13.26;62.77;98264.72;5041247;28;20037;-71
2022/11/17 06:17:54;;;;;;;21.42;20.33;;;;;;;13.25;62.75;98274.72;5035376;28;20048;-71
2022/11/17 06:20:33;;;;;;;22.42;21.13;;;;;;;13.26;63.12;98280.97;5032873;28;20030;-71
2022/11/17 06:23:03;;;;;;;22.92;21.67;;;;;;;13.26;62.74;98279.06;5038520;28;20117;-71
2022/11/17 06:25:29;;;;;;;22.55;21.15;;;;;;;13.25;62.96;98285.56;5038355;28;20492;-70
2022/11/17 06:27:57;;;;;;;23.25;22.05;;;;;;;13.26;62.91;98273.63;5049132;28;20029;-71
2022/11/17 06:30:22;;;;;;;21.70;20.60;;;;;;;13.27;63.05;98282.59;5032782;28;20033;-71
2022/11/17 06:32:48;;;;;;;22.45;21.33;;;;;;;13.26;63.07;98273.63;5034254;28;20121;-71
2022/11/17 06:35:15;;;;;;;24.73;22.98;;;;;;;13.26;62.75;98284.47;5034960;28;20049;-71
2022/11/17 06:37:42;;;;;;;22.90;21.50;;;;;;;13.26;62.94;98289.91;5037524;28;20069;-71
2022/11/17 06:40:08;;;;;;;23.13;21.73;;;;;;;13.26;62.90;98283.69;5031984;28;20060;-72
2022/11/17 06:45:18;;;;;;;24.48;23.17;;;;;;;13.25;62.93;98280.16;5051222;28;20051;-72
2022/11/17 06:47:43;;;;;;;21.83;20.40;;;;;;;13.26;62.97;98294.53;5048419;28;20120;-72
2022/11/17 06:50:09;;;;;;;23.63;22.40;;;;;;;13.26;62.70;98284.47;5049700;28;20531;-71
2022/11/17 06:52:34;;;;;;;23.13;21.80;;;;;;;13.26;63.30;98299.94;5051968;28;20440;-71
2022/11/17 06:55:00;;;;;;;21.42;20.35;;;;;;;13.26;62.90;98300.75;5040077;28;20060;-72
2022/11/17 06:57:25;;;;;;;22.40;21.20;;;;;;;13.26;63.04;98300.75;5039218;28;20120;-72
2022/11/17 06:59:51;;;;;;;22.23;21.13;;;;;;;13.26;62.99;98305.38;5028313;28;20087;-72
2022/11/17 07:02:17;;;;;;;23.30;22.00;;;;;;;13.26;62.88;98298.03;5041563;28;20481;-71
2022/11/17 07:04:42;;;;;;;21.98;20.77;;;;;;;13.26;63.21;98311.59;5041424;28;20025;-72
2022/11/17 07:07:07;;;;;;;23.85;22.55;;;;;;;13.26;62.64;98310.78;5047150;28;20047;-72
2022/11/17 07:09:33;;;;;;;22.65;21.55;;;;;;;13.26;62.96;98314.28;5050580;28;20373;-72
2022/11/17 07:11:58;;;;;;;21.65;20.35;;;;;;;13.26;63.07;98319.72;5030763;28;20036;-73
2022/11/17 07:14:23;;;;;;;23.35;22.15;;;;;;;13.26;62.98;98321.63;5040465;28;20056;-73
2022/11/17 07:16:49;;;;;;;21.25;20.20;;;;;;;13.26;62.84;98327.84;5049818;28;20060;-72
2022/11/17 07:19:14;;;;;;;23.85;22.30;;;;;;;13.26;62.84;98322.44;5045938;28;20458;-73
2022/11/17 07:21:39;;;;;;;21.48;20.38;;;;;;;13.26;63.15;98327.84;5048200;28;20504;-73
2022/11/17 07:24:05;;;;;;;22.63;21.42;;;;;;;13.26;62.79;98325.13;5045461;28;20366;-72
2022/11/17 07:26:30;;;;;;;21.63;20.55;;;;;;;13.27;62.76;98332.16;5031451;28;20083;-73
2022/11/17 07:28:56;;;;;;;21.83;20.73;;;;;;;13.27;62.62;98334.09;5037706;28;20461;-72
2022/11/17 07:31:21;;;;;;;22.50;21.25;;;;;;;13.27;63.00;98339.50;5039672;28;20379;-73
2022/11/17 07:33:46;;;;;;;21.90;20.80;;;;;;;13.26;62.88;98333.28;5045962;28;20092;-68
2022/11/17 07:36:15;;;;;;;23.33;21.88;;;;;;;13.26;62.75;98344.13;5032229;28;20033;-72
2022/11/17 07:38:41;;;;;;;21.42;20.23;;;;;;;13.26;62.66;98349.53;5054952;28;20474;-72
2022/11/17 07:41:09;;;;;;;22.00;20.70;;;;;;;13.26;62.79;98346.81;5048450;28;20052;-72
2022/11/17 07:43:35;;;;;;;21.67;20.58;;;;;;;13.27;63.01;98353.06;5036704;28;20037;-72
2022/11/17 07:46:07;;;;;;;22.60;21.38;;;;;;;13.26;63.06;98357.66;5037806;28;20091;-72
2022/11/17 07:48:34;;;;;;;21.45;20.15;;;;;;;13.27;62.66;98359.28;5036223;28;20026;-73
2022/11/17 07:51:00;;;;;;;22.13;20.95;;;;;;;13.27;62.82;98366.63;5054000;28;20033;-72
2022/11/17 07:53:26;;;;;;;23.40;22.20;;;;;;;13.27;62.93;98367.41;5035993;28;20587;-72
2022/11/17 07:55:52;;;;;;;21.25;20.15;;;;;;;13.27;62.91;98362.00;5044698;28;20108;-72
2022/11/17 07:58:17;;;;;;;23.25;22.05;;;;;;;13.27;62.79;98363.91;5050008;28;20041;-72
2022/11/17 08:00:42;;;;;;;21.13;20.08;;;;;;;13.27;63.00;98372.03;5037343;28;20043;-72
2022/11/17 08:03:09;;;;;;;22.73;21.63;;;;;;;13.27;63.08;98375.56;5048374;28;20037;-75
2022/11/17 08:05:36;;;;;;;23.17;21.92;;;;;;;13.26;62.76;98368.50;5039315;28;20122;-72
2022/11/17 08:08:01;;;;;;;22.70;21.50;;;;;;;13.27;62.96;98378.25;5044305;28;20044;-71
2022/11/17 08:10:30;;;;;;;22.90;21.60;;;;;;;13.26;62.86;98379.34;5035263;28;20033;-72
2022/11/17 08:12:56;;;;;;;;;;;;;;;13.26;62.86;98379.34;5036110;28;20116;-72
2022/11/17 08:15:22;;;;;;;21.00;19.88;;;;;;;13.26;62.56;98387.50;5039218;28;19913;-72
2022/11/17 08:17:56;;;;;;;22.70;21.50;;;;;;;13.25;63.06;98391.31;5039919;28;20397;-72
2022/11/17 08:20:23;;;;;;;22.88;21.67;;;;;;;13.26;62.57;98392.13;5054904;28;20028;-72
2022/11/17 08:22:49;;;;;;;21.85;20.75;;;;;;;13.25;62.85;98388.59;5036684;28;20040;-72
2022/11/17 08:25:15;;;;;;;22.75;21.58;;;;;;;13.25;62.69;98399.44;5043953;28;20048;-71
2022/11/17 08:27:41;;;;;;;22.92;21.65;;;;;;;13.24;62.74;98411.41;5048311;28;20120;-71
2022/11/17 08:30:08;;;;;;;21.50;20.40;;;;;;;13.24;62.70;98407.91;5038996;28;20047;-71
2022/11/17 08:32:34;;;;;;;22.63;21.48;;;;;;;13.24;62.95;98405.19;5053118;28;20040;-72
2022/11/17 08:35:00;;;;;;;21.48;20.33;;;;;;;13.25;62.88;98406.78;5054803;28;20061;-72
2022/11/17 08:37:25;;;;;;;22.58;21.38;;;;;;;13.25;62.75;98413.00;5041218;28;20041;-72
2022/11/17 08:39:50;;;;;;;21.58;20.50;;;;;;;13.25;62.65;98414.91;5034966;28;20474;-71
2022/11/17 08:42:16;;;;;;;22.40;21.05;;;;;;;13.25;62.91;98414.91;5046018;28;20517;-72
2022/11/17 08:44:41;;;;;;;21.77;20.67;;;;;;;13.24;62.95;98424.97;5034979;28;20126;-71
2022/11/17 08:47:07;;;;;;;21.65;20.55;;;;;;;13.24;62.71;98430.38;5035491;28;20473;-71
2022/11/17 08:49:32;;;;;;;23.20;21.90;;;;;;;13.24;62.69;98427.66;5047972;28;20080;-71
2022/11/17 08:51:57;;;;;;;21.33;20.33;;;;;;;13.24;62.74;98426.88;5034860;28;20112;-71
2022/11/17 08:54:23;;;;;;;23.73;22.42;;;;;;;13.24;62.89;98426.88;5042520;28;20076;-71
2022/11/17 08:56:48;;;;;;;21.92;20.73;;;;;;;13.24;62.95;98424.97;5048306;28;20476;-71
2022/11/17 08:59:14;;;;;;;22.98;21.58;;;;;;;13.23;62.66;98434.22;5053559;28;20114;-72
2022/11/17 09:01:39;;;;;;;22.80;21.60;;;;;;;13.24;62.66;98435.00;5040670;28;20120;-72
2022/11/17 09:04:05;;;;;;;22.27;21.08;;;;;;;13.23;62.97;98442.34;5034701;28;20444;-71
2022/11/17 09:06:30;;;;;;;23.40;21.98;;;;;;;13.24;62.77;98443.16;5041604;28;20469;-72
2022/11/17 09:08:56;;;;;;;22.23;20.83;;;;;;;13.23;62.63;98447.78;5051776;28;20503;-71
2022/11/17 09:11:22;;;;;;;23.88;22.55;;;;;;;13.24;62.91;98460.19;5051572;28;20032;-67
2022/11/17 09:13:47;;;;;;;21.50;20.42;;;;;;;13.25;62.85;98452.88;5034944;28;20049;-71
2022/11/17 09:16:13;;;;;;;22.70;21.30;;;;;;;13.24;62.65;98454.78;5034223;28;20091;-71
2022/11/17 09:18:39;;;;;;;21.40;20.25;;;;;;;13.25;62.73;98448.22;5056132;28;20347;-71
2022/11/17 09:21:14;;;;;;;22.90;21.55;;;;;;;13.25;62.70;98456.38;5034060;28;20457;-71
2022/11/17 09:23:40;;;;;;;21.88;20.77;;;;;;;13.26;62.78;98460.69;5033915;28;20048;-72
2022/11/17 09:26:08;;;;;;;21.70;20.48;;;;;;;13.26;62.96;98452.56;5034529;28;20065;-71
2022/11/17 09:28:34;;;;;;;22.85;21.48;;;;;;;13.26;62.91;98457.19;5039682;28;20112;-72
2022/11/17 09:31:08;;;;;;;23.15;21.98;;;;;;;13.26;62.92;98465.31;5050839;28;20128;-70
2022/11/17 09:33:34;;;;;;;23.73;22.23;;;;;;;13.26;62.96;98468.81;5051047;28;20515;-71
2022/11/17 09:35:59;;;;;;;21.88;20.58;;;;;;;13.26;62.92;98468.03;5050851;28;20045;-71
2022/11/17 09:38:25;;;;;;;23.98;22.52;;;;;;;13.25;62.99;98467.22;5051454;28;20033;-70
2022/11/17 09:40:53;;;;;;;21.77;19.92;;;;;;;13.26;63.00;98478.88;5045194;28;20057;-71
2022/11/17 09:43:32;;;;;;;21.52;20.42;;;;;;;13.25;62.96;98466.41;5032518;28;20029;-71
2022/11/17 09:46:20;;;;;;;21.55;20.45;;;;;;;13.24;63.10;98481.88;5032248;28;20511;-71
2022/11/17 09:49:09;;;;;;;22.45;21.25;;;;;;;13.23;63.12;98487.63;5032932;28;20044;-71
2022/11/17 09:51:37;;;;;;;23.10;21.52;;;;;;;13.23;63.00;98490.31;5043247;28;20525;-70
2022/11/17 09:54:12;;;;;;;20.60;19.50;;;;;;;13.21;63.04;98493.38;5050210;28;20041;-71
2022/11/17 09:56:39;;;;;;;22.63;21.42;;;;;;;13.20;63.22;98489.88;5030645;28;20041;-72
2022/11/17 09:59:10;;;;;;;22.02;20.92;;;;;;;13.21;63.08;98485.25;5046545;28;20038;-72
2022/11/17 10:01:37;;;;;;;22.35;21.13;;;;;;;13.22;63.11;98492.25;5050633;28;20171;-71
2022/11/17 10:04:09;;;;;;;21.83;20.73;;;;;;;13.21;63.02;98487.94;5032460;28;20029;-71
2022/11/17 10:06:36;;;;;;;24.50;23.05;;;;;;;13.20;63.25;98497.19;5031639;28;20111;-70
2022/11/17 10:09:01;;;;;;;21.75;20.65;;;;;;;13.20;63.18;98498.00;5042262;28;20389;-71
2022/11/17 10:11:33;;;;;;;22.30;21.13;;;;;;;13.20;63.17;98513.44;5048773;28;20029;-71
2022/11/17 10:14:05;;;;;;;22.70;21.50;;;;;;;13.19;63.29;98515.34;5031704;28;20484;-70
2022/11/17 10:16:30;;;;;;;23.20;21.80;;;;;;;13.19;63.29;98528.91;5041588;28;20043;-70
2022/11/17 10:18:56;;;;;;;23.10;21.83;;;;;;;13.20;63.35;98522.41;5039458;28;20041;-70
2022/11/17 10:21:21;;;;;;;23.73;22.33;;;;;;;13.20;63.20;98525.09;5044591;28;20029;-71
2022/11/17 10:23:55;;;;;;;22.42;21.23;;;;;;;13.20;63.12;98535.94;5045464;28;20041;-70
2022/11/17 10:26:21;;;;;;;21.48;20.42;;;;;;;13.21;63.23;98531.31;5041631;28;20440;-70
2022/11/17 10:28:47;;;;;;;23.98;22.20;;;;;;;13.21;63.12;98534.03;5040815;28;20216;-71
2022/11/17 10:31:16;;;;;;;21.90;20.80;;;;;;;13.20;63.16;98552.22;5049722;28;20053;-70
2022/11/17 10:33:49;;;;;;;24.35;22.98;;;;;;;13.21;63.03;98553.81;5031327;28;20559;-72
2022/11/17 10:36:25;;;;;;;21.50;20.40;;;;;;;13.20;63.00;98554.09;5051459;28;20036;-70
2022/11/17 10:38:54;;;;;;;22.23;20.92;;;;;;;13.20;63.34;98556.81;5049433;28;20385;-71
2022/11/17 10:41:24;;;;;;;21.60;20.40;;;;;;;13.20;63.25;98552.22;5050752;28;20036;-71
2022/11/17 10:43:59;;;;;;;22.10;20.85;;;;;;;13.20;62.98;98554.94;5046814;28;20033;-71
2022/11/17 10:46:24;;;;;;;22.20;21.10;;;;;;;13.20;63.14;98557.63;5048014;28;20473;-71
2022/11/17 10:48:54;;;;;;;22.58;21.27;;;;;;;13.20;63.12;98564.94;5038187;28;20063;-71
2022/11/17 10:51:21;;;;;;;21.52;20.33;;;;;;;13.20;63.07;98565.78;5036112;28;20104;-70
2022/11/17 10:54:18;;;;;;;23.75;22.35;;;;;;;13.20;63.20;98563.06;5032461;28;20144;-70
2022/11/17 10:56:50;;;;;;;23.50;22.00;;;;;;;13.21;63.23;98566.56;5041689;28;20465;-69
2022/11/17 10:59:28;;;;;;;22.75;21.45;;;;;;;13.21;63.19;98569.28;5046516;28;20061;-69
2022/11/17 11:01:54;;;;;;;23.98;22.30;;;;;;;13.20;63.11;98571.19;5036710;28;20025;-72
2022/11/17 11:04:34;;;;;;;21.50;20.40;;;;;;;13.20;63.28;98571.19;5039045;28;20109;-70
2022/11/17 11:07:20;;;;;;;22.40;21.30;;;;;;;13.19;63.18;98569.56;5043173;28;20075;-71
2022/11/17 11:10:15;;;;;;;25.83;24.23;;;;;;;13.18;63.23;98567.19;5035962;28;20044;-71
2022/11/17 11:12:55;;;;;;;23.60;22.27;;;;;;;13.18;63.00;98570.69;5040813;28;20040;-71
2022/11/17 11:15:23;;;;;;;21.73;20.58;;;;;;;13.19;62.99;98582.34;5045652;28;20041;-71
2022/11/17 11:17:49;;;;;;;23.27;21.83;;;;;;;13.19;63.36;98574.19;5045466;28;20116;-70
2022/11/17 11:20:17;;;;;;;21.63;20.52;;;;;;;13.19;63.04;98582.34;5031017;28;20026;-71
2022/11/17 11:23:02;;;;;;;22.90;21.38;;;;;;;13.19;63.15;98582.34;5037485;28;20021;-71
2022/11/17 11:25:40;;;;;;;24.42;23.13;;;;;;;13.18;63.26;98581.53;5030858;28;20025;-71
2022/11/17 11:28:12;;;;;;;22.10;21.00;;;;;;;13.19;63.00;98590.47;5045584;28;20033;-71
2022/11/17 11:30:53;;;;;;;23.38;21.92;;;;;;;13.19;63.35;98599.41;5032190;28;20071;-71
2022/11/17 11:33:32;;;;;;;21.60;20.50;;;;;;;13.18;63.09;98597.81;5036945;28;20025;-71
2022/11/17 11:36:28;;;;;;;21.20;20.10;;;;;;;13.19;63.26;98593.97;5038454;28;20383;-71
2022/11/17 11:39:03;;;;;;;24.30;22.77;;;;;;;13.18;62.96;98605.94;5041748;28;20095;-71
2022/11/17 11:41:43;;;;;;;22.50;21.00;;;;;;;13.19;63.20;98615.66;5035727;28;20029;-71
2022/11/17 11:44:14;;;;;;;23.02;21.77;;;;;;;13.18;63.38;98610.56;5037395;28;20037;-71
2022/11/17 11:47:01;;;;;;;21.95;20.77;;;;;;;13.19;62.83;98614.88;5029553;28;20083;-72
2022/11/17 11:49:31;;;;;;;21.50;20.33;;;;;;;13.19;62.93;98614.88;5043851;28;20041;-71
2022/11/17 11:51:57;;;;;;;24.17;22.58;;;;;;;13.19;63.23;98620.28;5034145;28;20528;-72
2022/11/17 11:54:41;;;;;;;24.08;22.75;;;;;;;13.19;63.18;98612.16;5030881;28;20033;-71